Wenzhou, China
Current Conditions -  °F | °C
As of 8:00 PM on Saturday 20 Dec 2014 (Local Time) from ZSNB Reporting Station
Few Clouds Few Clouds  
Wind Chill: 38°   Ceiling: Unl
Heat Index: 41°   Visibility: 4mi
Dew Point: 27°   Wind: 4mph
Humidity: 57%   Direction: 340°NNW
Pressure: 30.39"   Gusts: NA
Location:  28.02°N, 120.65°E
Report Text: ZSNB 201200Z 34002MPS 6000 FEW033 05/M03 Q1029 NOSIG
Loading
Personal Weather Stations






























Interactive Weather Map New forecast layout! Learn more

10-Day Weather Forecast

Advertisements
Track Severe Weather on mobile